createdAt,value
2023-04-17T00:01:41.158Z,-1.76
2023-04-17T00:04:13.162Z,-1.77
2023-04-17T00:06:44.285Z,-1.59
2023-04-17T00:09:12.622Z,-1.66
2023-04-17T00:11:40.706Z,-1.61
2023-04-17T00:14:07.356Z,-1.38
2023-04-17T00:16:34.052Z,-1.55
2023-04-17T00:19:00.708Z,-1.65
2023-04-17T00:21:29.970Z,-1.54
2023-04-17T00:23:56.934Z,-1.70
2023-04-17T00:26:23.869Z,-2.04
2023-04-17T00:28:51.813Z,-2.06
2023-04-17T00:31:18.514Z,-1.89
2023-04-17T00:33:46.332Z,-2.10
2023-04-17T00:36:13.889Z,-2.19
2023-04-17T00:38:41.895Z,-1.93
2023-04-17T00:41:08.699Z,-1.81
2023-04-17T00:43:36.582Z,-1.69
2023-04-17T00:46:05.373Z,-1.45
2023-04-17T00:48:35.598Z,-1.52
2023-04-17T00:51:03.330Z,-1.62
2023-04-17T00:53:31.845Z,-1.68
2023-04-17T00:56:04.948Z,-1.68
2023-04-17T00:58:32.218Z,-1.87
2023-04-17T01:00:59.639Z,-1.73
2023-04-17T01:03:26.462Z,-1.51
2023-04-17T01:05:54.520Z,-1.60
2023-04-17T01:08:24.316Z,-2.06
2023-04-17T01:10:50.914Z,-1.89
2023-04-17T01:13:17.623Z,-1.81
2023-04-17T01:15:45.926Z,-1.89
2023-04-17T01:18:13.856Z,-1.81
2023-04-17T01:20:42.277Z,-1.71
2023-04-17T01:23:09.168Z,-2.03
2023-04-17T01:25:37.494Z,-2.08
2023-04-17T01:28:04.274Z,-1.87
2023-04-17T01:30:31.131Z,-2.00
2023-04-17T01:32:57.892Z,-2.20
2023-04-17T01:35:24.644Z,-2.01
2023-04-17T01:37:51.240Z,-1.89
2023-04-17T01:40:18.045Z,-1.87
2023-04-17T01:42:44.684Z,-1.86
2023-04-17T01:45:11.677Z,-1.77
2023-04-17T01:47:38.352Z,-1.86
2023-04-17T01:50:05.904Z,-1.82
2023-04-17T01:52:33.904Z,-1.71
2023-04-17T01:55:00.606Z,-1.90
2023-04-17T01:57:28.230Z,-2.00
2023-04-17T01:59:54.836Z,-1.89
2023-04-17T02:02:21.806Z,-1.86
2023-04-17T02:04:48.482Z,-1.90
2023-04-17T02:07:15.160Z,-1.84
2023-04-17T02:09:41.817Z,-1.73
2023-04-17T02:12:08.480Z,-1.84
2023-04-17T02:14:35.106Z,-1.91
2023-04-17T02:17:03.811Z,-1.71
2023-04-17T02:19:31.883Z,-1.90
2023-04-17T02:21:58.514Z,-2.10
2023-04-17T02:24:26.613Z,-1.92
2023-04-17T02:26:54.331Z,-2.16
2023-04-17T02:29:20.958Z,-2.36
2023-04-17T02:31:47.673Z,-2.14
2023-04-17T02:34:14.688Z,-2.10
2023-04-17T02:36:41.427Z,-2.21
2023-04-17T02:39:09.393Z,-2.39
2023-04-17T02:41:36.096Z,-2.27
2023-04-17T02:44:04.414Z,-2.35
2023-04-17T02:46:31.056Z,-2.34
2023-04-17T02:48:57.723Z,-2.36
2023-04-17T02:51:25.635Z,-2.44
2023-04-17T02:53:52.253Z,-2.46
2023-04-17T02:56:20.012Z,-2.34
2023-04-17T02:58:46.682Z,-2.25
2023-04-17T03:01:13.469Z,-2.42
2023-04-17T03:03:41.281Z,-2.63
2023-04-17T03:06:09.814Z,-2.46
2023-04-17T03:08:39.842Z,-2.46
2023-04-17T03:11:06.668Z,-2.41
2023-04-17T03:13:36.743Z,-2.47
2023-04-17T03:16:04.768Z,-2.35
2023-04-17T03:18:31.864Z,-2.37
2023-04-17T03:20:58.654Z,-2.57
2023-04-17T03:23:25.287Z,-2.36
2023-04-17T03:25:52.104Z,-2.32
2023-04-17T03:28:18.800Z,-2.71
2023-04-17T03:30:45.449Z,-2.54
2023-04-17T03:33:12.138Z,-2.38
2023-04-17T03:35:38.837Z,-2.59
2023-04-17T03:38:05.492Z,-2.55
2023-04-17T03:40:33.667Z,-2.34
2023-04-17T03:43:01.589Z,-2.40
2023-04-17T03:45:28.248Z,-2.51
2023-04-17T03:47:56.053Z,-2.39
2023-04-17T03:50:22.677Z,-2.29
2023-04-17T03:52:50.483Z,-2.39
2023-04-17T03:55:17.549Z,-2.59
2023-04-17T03:57:45.311Z,-2.39
2023-04-17T04:00:13.653Z,-2.58
2023-04-17T04:02:40.532Z,-2.70
2023-04-17T04:05:07.736Z,-2.54
2023-04-17T04:07:34.419Z,-2.44
2023-04-17T04:10:01.555Z,-2.51
2023-04-17T04:12:29.731Z,-2.55
2023-04-17T04:14:56.355Z,-2.31
2023-04-17T04:17:22.976Z,-2.28
2023-04-17T04:19:49.654Z,-2.31
2023-04-17T04:22:16.759Z,-2.18
2023-04-17T04:24:44.815Z,-2.02
2023-04-17T04:27:13.867Z,-2.09
2023-04-17T04:29:45.626Z,-2.05
2023-04-17T04:32:13.724Z,-1.85
2023-04-17T04:34:42.124Z,-1.98
2023-04-17T04:37:08.821Z,-2.20
2023-04-17T04:39:39.025Z,-2.07
2023-04-17T04:42:09.916Z,-2.02
2023-04-17T04:44:39.698Z,-2.03
2023-04-17T04:47:06.412Z,-1.94
2023-04-17T04:49:33.262Z,-1.88
2023-04-17T04:51:59.883Z,-1.97
2023-04-17T04:54:26.532Z,-1.89
2023-04-17T04:56:54.346Z,-1.67
2023-04-17T04:59:21.146Z,-1.75
2023-04-17T05:01:48.035Z,-1.77
2023-04-17T05:04:14.910Z,-1.57
2023-04-17T05:06:41.873Z,-1.52
2023-04-17T05:09:09.076Z,-1.63
2023-04-17T05:11:36.368Z,-1.53
2023-04-17T05:14:02.974Z,-1.34
2023-04-17T05:16:29.628Z,-1.44
2023-04-17T05:18:56.478Z,-1.33
2023-04-17T05:21:24.382Z,-1.10
2023-04-17T05:23:51.055Z,-1.16
2023-04-17T05:26:19.306Z,-1.25
2023-04-17T05:28:45.982Z,-1.03
2023-04-17T05:31:12.812Z,-1.03
2023-04-17T05:33:39.604Z,-1.05
2023-04-17T05:36:07.493Z,-0.85
2023-04-17T05:38:35.306Z,-0.69
2023-04-17T05:41:02.151Z,-0.63
2023-04-17T05:43:28.906Z,-0.49
2023-04-17T05:45:55.633Z,-0.21
2023-04-17T05:48:22.907Z,-0.17
2023-04-17T05:50:49.606Z,-0.10
2023-04-17T05:53:17.818Z,0.12
2023-04-17T05:55:44.505Z,0.15
2023-04-17T06:00:43.454Z,0.44
2023-04-17T06:03:10.622Z,0.58
2023-04-17T06:05:37.527Z,0.65
2023-04-17T06:08:05.750Z,0.91
2023-04-17T06:10:34.886Z,1.32
2023-04-17T06:13:02.831Z,1.69
2023-04-17T06:15:29.463Z,1.78
2023-04-17T06:17:57.518Z,2.35
2023-04-17T06:20:24.203Z,2.36
2023-04-17T06:22:50.939Z,2.42
2023-04-17T06:25:18.283Z,2.70
2023-04-17T06:27:44.936Z,2.66
2023-04-17T06:30:11.914Z,3.12
2023-04-17T06:32:42.527Z,3.33
2023-04-17T06:35:10.888Z,3.36
2023-04-17T06:37:37.533Z,3.28
2023-04-17T06:40:04.507Z,3.64
2023-04-17T06:42:35.142Z,3.78
2023-04-17T06:45:02.204Z,4.04
2023-04-17T06:47:30.329Z,4.21
2023-04-17T06:49:59.843Z,4.04
2023-04-17T06:52:28.301Z,4.25
2023-04-17T06:54:55.462Z,4.54
2023-04-17T06:57:23.770Z,4.77
2023-04-17T06:59:50.458Z,5.01
2023-04-17T07:02:17.581Z,5.08
2023-04-17T07:04:44.425Z,5.05
2023-04-17T07:07:11.221Z,5.26
2023-04-17T07:09:38.477Z,5.38
2023-04-17T07:12:05.527Z,5.41
2023-04-17T07:14:33.691Z,5.63
2023-04-17T07:17:00.637Z,5.67
2023-04-17T07:19:28.800Z,5.86
2023-04-17T07:21:56.355Z,6.03
2023-04-17T07:24:22.976Z,6.04
2023-04-17T07:26:49.670Z,6.15
2023-04-17T07:29:16.499Z,6.22
2023-04-17T07:31:44.948Z,6.22
2023-04-17T07:34:11.681Z,6.38
2023-04-17T07:36:39.565Z,6.28
2023-04-17T07:39:08.060Z,6.28
2023-04-17T07:41:34.711Z,6.53
2023-04-17T07:44:03.556Z,6.66
2023-04-17T07:46:30.282Z,6.80
2023-04-17T07:48:57.077Z,6.90
2023-04-17T07:51:25.111Z,6.73
2023-04-17T07:53:51.707Z,6.92
2023-04-17T07:56:19.724Z,7.04
2023-04-17T07:58:46.482Z,7.10
2023-04-17T08:01:13.677Z,7.28
2023-04-17T08:03:41.954Z,7.17
2023-04-17T08:06:08.812Z,7.32
2023-04-17T08:08:36.340Z,7.48
2023-04-17T08:11:04.117Z,7.58
2023-04-17T08:13:33.898Z,7.67
2023-04-17T08:16:00.500Z,7.74
2023-04-17T08:18:28.478Z,7.75
2023-04-17T08:20:55.126Z,7.89
2023-04-17T08:23:21.750Z,7.57
2023-04-17T08:25:48.456Z,7.75
2023-04-17T08:28:15.032Z,7.95
2023-04-17T08:30:41.789Z,7.96
2023-04-17T08:33:09.528Z,8.19
2023-04-17T08:35:37.482Z,8.30
2023-04-17T08:38:05.215Z,8.39
2023-04-17T08:40:31.823Z,8.43
2023-04-17T08:43:02.640Z,8.24
2023-04-17T08:45:29.260Z,8.47
2023-04-17T08:47:56.087Z,8.39
2023-04-17T08:50:23.357Z,8.62
2023-04-17T08:52:52.015Z,8.69
2023-04-17T08:55:24.814Z,8.64
2023-04-17T08:58:05.079Z,8.92
2023-04-17T09:00:36.940Z,8.95
2023-04-17T09:03:07.816Z,9.11
2023-04-17T09:05:37.083Z,9.13
2023-04-17T09:08:21.965Z,9.14
2023-04-17T09:10:51.025Z,9.22
2023-04-17T09:13:19.825Z,9.16
2023-04-17T09:15:48.472Z,9.37
2023-04-17T09:18:24.865Z,9.37
2023-04-17T09:20:51.827Z,9.47
2023-04-17T09:23:19.129Z,9.60
2023-04-17T09:25:46.288Z,9.55
2023-04-17T09:28:16.119Z,9.72
2023-04-17T09:30:43.557Z,9.55
2023-04-17T09:33:11.891Z,9.57
2023-04-17T09:35:40.030Z,9.78
2023-04-17T09:38:07.289Z,9.67
2023-04-17T09:40:39.898Z,9.90
2023-04-17T09:43:11.618Z,9.84
2023-04-17T09:45:41.823Z,10.02
2023-04-17T09:48:12.824Z,10.12
2023-04-17T09:50:41.231Z,10.15
2023-04-17T09:53:08.586Z,10.20
2023-04-17T09:55:37.870Z,10.14
2023-04-17T09:58:07.453Z,10.18
2023-04-17T10:00:36.517Z,10.15
2023-04-17T10:03:03.462Z,10.00
2023-04-17T10:05:33.232Z,10.24
2023-04-17T10:08:02.402Z,10.25
2023-04-17T10:10:34.397Z,10.42
2023-04-17T10:13:03.020Z,10.47
2023-04-17T10:15:30.562Z,10.50
2023-04-17T10:18:21.007Z,10.69
2023-04-17T10:20:48.885Z,10.64
2023-04-17T10:23:33.951Z,10.75
2023-04-17T10:26:25.439Z,10.54
2023-04-17T10:28:54.345Z,10.70
2023-04-17T10:31:24.160Z,10.87
2023-04-17T10:33:52.718Z,10.92
2023-04-17T10:36:38.071Z,11.06
2023-04-17T10:39:20.731Z,10.92
2023-04-17T10:42:06.103Z,11.03
2023-04-17T10:44:42.906Z,11.16
2023-04-17T10:50:00.944Z,11.12
2023-04-17T10:52:34.663Z,10.92
2023-04-17T10:55:20.866Z,11.14
2023-04-17T10:57:56.866Z,11.25
2023-04-17T11:00:59.586Z,11.27
2023-04-17T11:03:26.746Z,11.20
2023-04-17T11:05:54.039Z,11.41
2023-04-17T11:08:21.299Z,11.63
2023-04-17T11:10:54.368Z,11.60
2023-04-17T11:13:22.229Z,11.71
2023-04-17T11:15:50.865Z,11.76
2023-04-17T11:18:18.448Z,11.92
2023-04-17T11:20:46.148Z,11.99
2023-04-17T11:23:13.699Z,11.96
2023-04-17T11:25:43.036Z,12.07
2023-04-17T11:28:11.754Z,11.96
2023-04-17T11:30:46.012Z,11.91
2023-04-17T11:33:12.760Z,12.13
2023-04-17T11:35:41.815Z,12.36
2023-04-17T11:38:14.602Z,12.49
2023-04-17T11:40:47.328Z,12.41
2023-04-17T11:43:15.284Z,12.51
2023-04-17T11:45:44.853Z,12.57
2023-04-17T11:48:13.987Z,12.57
2023-04-17T11:50:42.887Z,12.69
2023-04-17T11:53:13.687Z,12.67
2023-04-17T11:55:40.333Z,12.75
2023-04-17T11:58:08.816Z,12.54
2023-04-17T12:00:38.531Z,12.60
2023-04-17T12:03:41.857Z,12.74
2023-04-17T12:06:12.085Z,12.64
2023-04-17T12:08:50.149Z,12.64
2023-04-17T12:11:23.969Z,12.75
2023-04-17T12:13:51.935Z,12.92
2023-04-17T12:16:19.126Z,12.88
2023-04-17T12:18:46.376Z,12.88
2023-04-17T12:21:15.239Z,12.86
2023-04-17T12:23:41.969Z,12.64
2023-04-17T12:26:09.667Z,12.81
2023-04-17T12:28:37.641Z,12.87
2023-04-17T12:31:04.794Z,12.92
2023-04-17T12:33:33.543Z,12.89
2023-04-17T12:36:01.553Z,12.87
2023-04-17T12:38:28.697Z,13.09
2023-04-17T12:40:55.314Z,13.03
2023-04-17T12:43:22.016Z,13.13
2023-04-17T12:45:49.960Z,13.05
2023-04-17T12:48:23.125Z,13.09
2023-04-17T12:50:49.754Z,13.10
2023-04-17T12:53:17.506Z,13.02
2023-04-17T12:55:44.502Z,13.17
2023-04-17T12:58:13.753Z,13.06
2023-04-17T13:00:43.784Z,13.14
2023-04-17T13:03:11.856Z,13.23
2023-04-17T13:05:38.960Z,13.26
2023-04-17T13:08:05.758Z,13.41
2023-04-17T13:10:34.301Z,13.31
2023-04-17T13:13:02.287Z,13.52
2023-04-17T13:15:28.894Z,13.40
2023-04-17T13:17:56.966Z,13.42
2023-04-17T13:20:23.738Z,13.42
2023-04-17T13:22:50.441Z,13.16
2023-04-17T13:25:17.261Z,13.09
2023-04-17T13:27:43.958Z,12.90
2023-04-17T13:30:11.024Z,13.02
2023-04-17T13:32:40.589Z,13.34
2023-04-17T13:35:09.658Z,13.42
2023-04-17T13:37:36.397Z,13.69
2023-04-17T13:40:07.387Z,13.55
2023-04-17T13:42:34.002Z,13.45
2023-04-17T13:45:01.460Z,13.41
2023-04-17T13:47:29.461Z,13.32
2023-04-17T13:49:56.412Z,13.63
2023-04-17T13:52:24.323Z,13.90
2023-04-17T13:54:50.936Z,14.07
2023-04-17T13:57:21.756Z,14.05
2023-04-17T13:59:48.352Z,14.00
2023-04-17T14:02:15.121Z,14.11
2023-04-17T14:04:41.957Z,13.88
2023-04-17T14:07:08.710Z,13.77
2023-04-17T14:09:36.658Z,13.55
2023-04-17T14:12:04.325Z,13.31
2023-04-17T14:14:32.096Z,13.43
2023-04-17T14:16:58.656Z,13.42
2023-04-17T14:19:25.545Z,13.44
2023-04-17T14:21:52.136Z,13.50
2023-04-17T14:24:18.775Z,13.74
2023-04-17T14:26:46.624Z,14.04
2023-04-17T14:29:14.913Z,14.27
2023-04-17T14:31:41.742Z,14.51
2023-04-17T14:34:08.571Z,14.49
2023-04-17T14:36:35.928Z,14.20
2023-04-17T14:39:02.754Z,14.06
2023-04-17T14:41:31.684Z,13.74
2023-04-17T14:43:58.266Z,13.63
2023-04-17T14:46:24.970Z,13.65
2023-04-17T14:48:55.743Z,13.24
2023-04-17T14:51:27.087Z,13.32
2023-04-17T14:53:54.880Z,13.22
2023-04-17T14:56:22.031Z,13.20
2023-04-17T14:58:48.851Z,13.26
2023-04-17T15:01:15.722Z,13.04
2023-04-17T15:03:47.323Z,13.17
2023-04-17T15:06:15.006Z,13.13
2023-04-17T15:08:41.822Z,13.38
2023-04-17T15:11:08.832Z,13.37
2023-04-17T15:13:35.993Z,13.27
2023-04-17T15:16:03.498Z,13.34
2023-04-17T15:18:30.816Z,13.08
2023-04-17T15:20:57.519Z,13.15
2023-04-17T15:23:26.555Z,13.15
2023-04-17T15:25:57.491Z,13.07
2023-04-17T15:28:24.974Z,13.21
2023-04-17T15:30:51.583Z,13.10
2023-04-17T15:33:19.421Z,13.16
2023-04-17T15:35:46.054Z,13.04
2023-04-17T15:38:14.256Z,13.02
2023-04-17T15:40:41.016Z,13.11
2023-04-17T15:43:07.660Z,12.91
2023-04-17T15:45:34.309Z,13.00
2023-04-17T15:48:01.805Z,12.78
2023-04-17T15:50:30.294Z,12.68
2023-04-17T15:52:58.266Z,12.73
2023-04-17T15:55:26.060Z,12.53
2023-04-17T15:57:52.721Z,12.68
2023-04-17T16:00:19.761Z,12.48
2023-04-17T16:02:47.948Z,12.57
2023-04-17T16:05:15.959Z,12.88
2023-04-17T16:07:43.876Z,13.01
2023-04-17T16:10:14.743Z,13.44
2023-04-17T16:12:43.304Z,13.44
2023-04-17T16:15:17.729Z,13.54
2023-04-17T16:17:45.732Z,13.75
2023-04-17T16:20:14.735Z,13.54
2023-04-17T16:22:41.325Z,13.31
2023-04-17T16:25:08.502Z,13.32
2023-04-17T16:27:35.192Z,12.77
2023-04-17T16:30:03.038Z,12.57
2023-04-17T16:32:31.789Z,12.59
2023-04-17T16:34:58.545Z,11.92
2023-04-17T16:37:25.208Z,12.05
2023-04-17T16:39:51.784Z,11.70
2023-04-17T16:42:18.472Z,11.54
2023-04-17T16:44:46.038Z,11.68
2023-04-17T16:47:14.331Z,11.63
2023-04-17T16:49:42.082Z,11.98
2023-04-17T16:52:08.822Z,12.06
2023-04-17T16:54:35.622Z,12.01
2023-04-17T16:57:02.293Z,12.09
2023-04-17T16:59:28.908Z,11.80
2023-04-17T17:01:55.683Z,12.01
2023-04-17T17:04:23.808Z,11.98
2023-04-17T17:06:50.739Z,11.83
2023-04-17T17:09:17.423Z,12.08
2023-04-17T17:11:44.043Z,11.97
2023-04-17T17:14:10.673Z,11.87
2023-04-17T17:16:37.466Z,12.07
2023-04-17T17:19:05.666Z,11.54
2023-04-17T17:21:32.518Z,11.70
2023-04-17T17:23:59.158Z,11.50
2023-04-17T17:26:25.883Z,11.31
2023-04-17T17:28:53.497Z,11.47
2023-04-17T17:31:20.525Z,10.89
2023-04-17T17:33:51.042Z,10.86
2023-04-17T17:36:17.732Z,10.77
2023-04-17T17:38:45.886Z,10.39
2023-04-17T17:41:12.523Z,10.54
2023-04-17T17:43:39.275Z,10.34
2023-04-17T17:46:05.973Z,10.03
2023-04-17T17:48:34.775Z,10.10
2023-04-17T17:51:01.367Z,9.70
2023-04-17T17:53:29.462Z,9.87
2023-04-17T17:55:57.106Z,9.60
2023-04-17T17:58:24.338Z,9.48
2023-04-17T18:00:52.534Z,9.50
2023-04-17T18:03:19.406Z,9.18
2023-04-17T18:05:47.106Z,9.34
2023-04-17T18:08:14.618Z,8.90
2023-04-17T18:10:41.369Z,8.83
2023-04-17T18:13:08.316Z,8.74
2023-04-17T18:15:36.273Z,8.28
2023-04-17T18:18:03.159Z,8.44
2023-04-17T18:20:29.890Z,7.82
2023-04-17T18:22:57.996Z,7.77
2023-04-17T18:25:24.740Z,7.56
2023-04-17T18:27:52.528Z,7.34
2023-04-17T18:30:19.127Z,7.56
2023-04-17T18:32:47.325Z,7.04
2023-04-17T18:35:13.989Z,6.89
2023-04-17T18:37:43.283Z,6.98
2023-04-17T18:40:11.650Z,6.72
2023-04-17T18:42:38.628Z,6.86
2023-04-17T18:45:07.226Z,6.45
2023-04-17T18:47:35.624Z,6.21
2023-04-17T18:50:05.524Z,6.35
2023-04-17T18:52:32.185Z,6.03
2023-04-17T18:55:00.214Z,5.80
2023-04-17T18:57:26.974Z,5.93
2023-04-17T18:59:53.616Z,5.60
2023-04-17T19:02:20.259Z,5.51
2023-04-17T19:04:46.955Z,5.59
2023-04-17T19:07:13.596Z,5.33
2023-04-17T19:09:41.634Z,5.21
2023-04-17T19:12:08.239Z,5.36
2023-04-17T19:14:34.847Z,4.87
2023-04-17T19:17:01.613Z,4.76
2023-04-17T19:19:28.230Z,4.84
2023-04-17T19:21:56.009Z,4.59
2023-04-17T19:24:22.732Z,4.57
2023-04-17T19:26:49.460Z,4.50
2023-04-17T19:29:17.314Z,4.30
2023-04-17T19:31:44.817Z,4.37
2023-04-17T19:34:11.546Z,4.00
2023-04-17T19:36:38.269Z,3.66
2023-04-17T19:39:04.973Z,3.91
2023-04-17T19:41:31.665Z,3.50
2023-04-17T19:43:58.256Z,3.38
2023-04-17T19:46:26.956Z,3.62
2023-04-17T19:48:54.141Z,3.28
2023-04-17T19:51:20.891Z,3.18
2023-04-17T19:53:48.089Z,3.36
2023-04-17T19:56:15.807Z,3.02
2023-04-17T19:58:42.709Z,2.93
2023-04-17T20:01:09.498Z,3.15
2023-04-17T20:03:38.429Z,2.89
2023-04-17T20:06:05.440Z,2.68
2023-04-17T20:08:33.157Z,2.87
2023-04-17T20:11:00.009Z,2.61
2023-04-17T20:13:28.056Z,2.30
2023-04-17T20:15:54.715Z,2.47
2023-04-17T20:18:21.412Z,2.11
2023-04-17T20:20:48.072Z,2.12
2023-04-17T20:23:14.703Z,2.39
2023-04-17T20:25:42.397Z,2.18
2023-04-17T20:28:10.899Z,2.04
2023-04-17T20:30:37.574Z,2.21
2023-04-17T20:33:05.757Z,1.97
2023-04-17T20:35:32.425Z,1.64
2023-04-17T20:37:59.426Z,1.76
2023-04-17T20:40:26.054Z,1.62
2023-04-17T20:42:52.787Z,1.32
2023-04-17T20:45:19.548Z,1.30
2023-04-17T20:47:56.416Z,1.47
2023-04-17T20:50:26.855Z,1.39
2023-04-17T20:52:53.481Z,1.15
2023-04-17T20:55:20.383Z,1.31
2023-04-17T20:57:48.764Z,0.95
2023-04-17T21:00:16.241Z,0.77
2023-04-17T21:02:43.851Z,0.99
2023-04-17T21:05:10.773Z,1.06
2023-04-17T21:07:37.992Z,0.99
2023-04-17T21:10:05.236Z,1.00
2023-04-17T21:12:33.987Z,1.08
2023-04-17T21:15:00.743Z,0.75
2023-04-17T21:17:27.490Z,0.48
2023-04-17T21:19:56.010Z,0.60
2023-04-17T21:22:22.782Z,0.53
2023-04-17T21:24:50.749Z,0.29
2023-04-17T21:27:18.579Z,0.51
2023-04-17T21:29:45.212Z,0.36
2023-04-17T21:32:12.967Z,0.17
2023-04-17T21:34:41.233Z,0.42
2023-04-17T21:37:07.840Z,0.47
2023-04-17T21:39:35.791Z,0.50
2023-04-17T21:42:02.521Z,0.28
2023-04-17T21:44:30.570Z,0.44
2023-04-17T21:46:57.615Z,0.14
2023-04-17T21:49:24.667Z,0.17
2023-04-17T21:51:52.435Z,0.24
2023-04-17T21:54:19.054Z,-0.19
2023-04-17T21:56:47.282Z,-0.16
2023-04-17T21:59:15.667Z,0.01
2023-04-17T22:01:42.430Z,-0.27
2023-04-17T22:04:09.130Z,-0.30
2023-04-17T22:06:39.589Z,-0.04
2023-04-17T22:09:06.194Z,-0.29
2023-04-17T22:11:34.055Z,-0.33
2023-04-17T22:14:00.766Z,-0.08
2023-04-17T22:16:27.437Z,-0.24
2023-04-17T22:18:54.472Z,-0.36
2023-04-17T22:21:21.085Z,-0.16
2023-04-17T22:23:48.960Z,-0.51
2023-04-17T22:26:15.845Z,-0.70
2023-04-17T22:28:43.722Z,-0.44
2023-04-17T22:31:11.962Z,-0.61
2023-04-17T22:33:38.575Z,-0.77
2023-04-17T22:36:06.552Z,-0.59
2023-04-17T22:38:33.137Z,-0.63
2023-04-17T22:40:59.820Z,-0.83
2023-04-17T22:43:27.889Z,-0.70
2023-04-17T22:45:54.576Z,-0.61
2023-04-17T22:48:24.497Z,-0.83
2023-04-17T22:50:52.837Z,-0.79
2023-04-17T22:53:19.420Z,-0.68
2023-04-17T22:55:46.277Z,-0.80
2023-04-17T22:58:12.979Z,-0.81
2023-04-17T23:00:39.618Z,-0.63
2023-04-17T23:03:06.447Z,-0.93
2023-04-17T23:05:33.130Z,-1.01
2023-04-17T23:07:59.727Z,-0.81
2023-04-17T23:10:27.598Z,-0.90
2023-04-17T23:12:54.188Z,-0.94
2023-04-17T23:15:21.181Z,-0.79
2023-04-17T23:17:47.856Z,-0.91
2023-04-17T23:20:14.617Z,-1.06
2023-04-17T23:22:41.287Z,-1.00
2023-04-17T23:25:08.423Z,-0.93
2023-04-17T23:27:36.250Z,-1.09
2023-04-17T23:30:03.599Z,-0.99
2023-04-17T23:32:31.627Z,-0.81
2023-04-17T23:34:58.317Z,-0.81
2023-04-17T23:37:25.519Z,-0.87
2023-04-17T23:39:52.165Z,-0.71
2023-04-17T23:42:18.785Z,-0.87
2023-04-17T23:44:45.516Z,-1.07
2023-04-17T23:47:13.996Z,-0.95
2023-04-17T23:49:40.951Z,-1.09
2023-04-17T23:52:07.618Z,-1.28
2023-04-17T23:54:34.240Z,-1.25
2023-04-17T23:57:02.430Z,-1.11
2023-04-17T23:59:29.054Z,-1.48
